createdAt,value
2019-02-10T00:00:00.360Z,5.10
2019-02-10T00:02:31.866Z,7.33
2019-02-10T00:05:03.222Z,5.53
2019-02-10T00:07:34.824Z,5.73
2019-02-10T00:10:06.510Z,5.03
2019-02-10T00:12:37.948Z,4.50
2019-02-10T00:15:09.520Z,9.83
2019-02-10T00:17:42.574Z,7.70
2019-02-10T00:20:14.056Z,8.40
2019-02-10T00:22:45.554Z,7.60
2019-02-10T00:25:17.158Z,8.13
2019-02-10T00:27:49.574Z,9.27
2019-02-10T00:30:21.031Z,6.93
2019-02-10T00:32:52.441Z,9.47
2019-02-10T00:35:23.839Z,5.10
2019-02-10T00:37:56.676Z,8.70
2019-02-10T00:40:28.101Z,7.50
2019-02-10T00:42:59.518Z,7.93
2019-02-10T00:45:31.059Z,8.17
2019-02-10T00:48:02.411Z,4.90
2019-02-10T00:50:33.827Z,4.07
2019-02-10T00:53:05.284Z,7.73
2019-02-10T00:55:36.670Z,6.70
2019-02-10T00:58:08.078Z,5.40
2019-02-10T01:00:39.529Z,4.70
2019-02-10T01:03:11.036Z,5.20
2019-02-10T01:05:42.611Z,3.93
2019-02-10T01:08:14.058Z,4.20
2019-02-10T01:10:45.525Z,5.10
2019-02-10T01:13:16.990Z,3.97
2019-02-10T01:15:48.462Z,6.13
2019-02-10T01:18:20.029Z,6.20
2019-02-10T01:20:51.466Z,5.47
2019-02-10T01:23:22.950Z,7.57
2019-02-10T01:25:54.313Z,3.23
2019-02-10T01:28:25.709Z,5.00
2019-02-10T01:30:58.260Z,3.30
2019-02-10T01:33:29.721Z,4.20
2019-02-10T01:36:01.110Z,2.90
2019-02-10T01:38:32.471Z,6.17
2019-02-10T01:41:04.082Z,2.70
2019-02-10T01:43:35.554Z,2.60
2019-02-10T01:46:07.523Z,3.27
2019-02-10T01:48:38.964Z,3.83
2019-02-10T01:51:10.438Z,3.87
2019-02-10T01:53:41.784Z,2.70
2019-02-10T01:56:13.230Z,2.20
2019-02-10T01:58:44.698Z,2.00
2019-02-10T02:01:16.246Z,1.70
2019-02-10T02:03:47.688Z,2.60
2019-02-10T02:06:19.177Z,2.60
2019-02-10T02:08:50.689Z,2.40
2019-02-10T02:11:22.164Z,2.20
2019-02-10T02:13:53.739Z,1.73
2019-02-10T02:16:25.577Z,1.77
2019-02-10T02:18:56.997Z,2.70
2019-02-10T02:21:28.464Z,2.17
2019-02-10T02:23:59.926Z,2.20
2019-02-10T02:26:31.471Z,2.00
2019-02-10T02:29:02.810Z,2.50
2019-02-10T02:31:34.252Z,5.00
2019-02-10T02:34:05.662Z,1.83
2019-02-10T02:36:42.353Z,1.80
2019-02-10T02:39:13.851Z,1.50
2019-02-10T02:41:45.347Z,1.80
2019-02-10T02:44:16.780Z,1.53
2019-02-10T02:46:48.150Z,2.10
2019-02-10T02:49:21.114Z,2.20
2019-02-10T02:51:52.582Z,2.73
2019-02-10T02:54:23.939Z,4.60
2019-02-10T02:56:55.441Z,1.30
2019-02-10T02:59:26.928Z,1.90
2019-02-10T03:01:58.383Z,1.60
2019-02-10T03:04:29.819Z,1.30
2019-02-10T03:07:01.281Z,1.90
2019-02-10T03:09:32.635Z,1.57
2019-02-10T03:12:04.076Z,1.53
2019-02-10T03:14:35.437Z,1.83
2019-02-10T03:17:06.889Z,3.27
2019-02-10T03:19:38.294Z,2.83
2019-02-10T03:22:09.963Z,1.77
2019-02-10T03:24:41.465Z,1.33
2019-02-10T03:27:12.865Z,1.10
2019-02-10T03:29:45.347Z,2.20
2019-02-10T03:32:16.749Z,1.73
2019-02-10T03:34:48.197Z,1.93
2019-02-10T03:37:26.850Z,1.30
2019-02-10T03:39:52.753Z,1.20
2019-02-10T03:42:24.235Z,1.00
2019-02-10T03:44:55.635Z,0.93
2019-02-10T03:47:27.059Z,1.50
2019-02-10T03:49:58.491Z,0.90
2019-02-10T03:52:29.929Z,1.20
2019-02-10T03:55:01.392Z,0.90
2019-02-10T03:57:32.942Z,1.67
2019-02-10T04:00:04.475Z,3.67
2019-02-10T04:02:37.317Z,1.60
2019-02-10T04:05:08.755Z,1.00
2019-02-10T04:07:40.246Z,1.77
2019-02-10T04:10:11.840Z,1.53
2019-02-10T04:12:44.521Z,1.10
2019-02-10T04:15:16.041Z,1.13
2019-02-10T04:17:47.419Z,1.00
2019-02-10T04:20:18.904Z,1.40
2019-02-10T04:22:50.377Z,1.10
2019-02-10T04:25:21.790Z,1.30
2019-02-10T04:27:53.168Z,3.53
2019-02-10T04:30:24.526Z,5.00
2019-02-10T04:32:55.986Z,1.07
2019-02-10T04:35:29.852Z,1.40
2019-02-10T04:38:01.341Z,1.60
2019-02-10T04:40:32.749Z,1.40
2019-02-10T04:43:04.206Z,1.40
2019-02-10T04:45:35.559Z,2.83
2019-02-10T04:48:07.019Z,1.50
2019-02-10T04:50:38.795Z,1.10
2019-02-10T04:53:10.217Z,1.60
2019-02-10T04:55:41.564Z,1.60
2019-02-10T04:58:13.029Z,1.30
2019-02-10T05:00:44.674Z,1.40
2019-02-10T05:03:16.123Z,2.00
2019-02-10T05:05:47.566Z,1.20
2019-02-10T05:08:19.018Z,1.53
2019-02-10T05:10:50.578Z,1.60
2019-02-10T05:13:21.981Z,2.60
2019-02-10T05:15:53.401Z,1.67
2019-02-10T05:18:25.037Z,1.70
2019-02-10T05:20:56.387Z,2.37
2019-02-10T05:23:27.772Z,2.20
2019-02-10T05:25:59.208Z,2.30
2019-02-10T05:28:30.588Z,1.70
2019-02-10T05:31:02.024Z,2.00
2019-02-10T05:33:33.440Z,1.87
2019-02-10T05:36:04.901Z,2.13
2019-02-10T05:38:36.350Z,1.70
2019-02-10T05:41:07.769Z,1.83
2019-02-10T05:43:39.229Z,2.40
2019-02-10T05:46:10.670Z,2.70
2019-02-10T05:48:42.112Z,3.13
2019-02-10T05:51:13.588Z,1.93
2019-02-10T05:53:45.054Z,2.17
2019-02-10T05:56:17.610Z,2.13
2019-02-10T05:58:49.096Z,2.27
2019-02-10T06:02:25.726Z,2.50
2019-02-10T06:05:00.498Z,2.43
2019-02-10T06:07:31.911Z,3.70
2019-02-10T06:10:03.359Z,4.10
2019-02-10T06:12:35.280Z,2.60
2019-02-10T06:15:07.826Z,2.70
2019-02-10T06:17:39.304Z,1.73
2019-02-10T06:20:11.098Z,2.10
2019-02-10T06:22:42.541Z,2.00
2019-02-10T06:25:15.095Z,2.37
2019-02-10T06:27:46.553Z,2.10
2019-02-10T06:30:18.031Z,2.20
2019-02-10T06:32:49.513Z,2.23
2019-02-10T06:35:20.941Z,2.53
2019-02-10T06:37:52.293Z,1.53
2019-02-10T06:40:23.785Z,1.77
2019-02-10T06:42:55.121Z,1.73
2019-02-10T06:45:26.566Z,2.10
2019-02-10T06:47:57.940Z,1.80
2019-02-10T06:50:29.374Z,2.27
2019-02-10T06:53:00.819Z,1.70
2019-02-10T06:55:32.276Z,1.90
2019-02-10T06:58:03.709Z,1.97
2019-02-10T07:00:56.884Z,2.13
2019-02-10T07:04:03.452Z,2.80
2019-02-10T07:06:34.923Z,2.53
2019-02-10T07:09:07.506Z,1.90
2019-02-10T07:11:38.874Z,1.57
2019-02-10T07:14:35.053Z,1.87
2019-02-10T07:17:41.953Z,2.67
2019-02-10T07:20:42.519Z,3.10
2019-02-10T07:24:24.418Z,3.03
2019-02-10T07:26:57.724Z,4.20
2019-02-10T07:30:02.724Z,4.90
2019-02-10T07:32:41.621Z,7.93
2019-02-10T07:35:55.344Z,14.60
2019-02-10T07:39:23.739Z,10.07
2019-02-10T07:42:57.246Z,7.87
2019-02-10T07:46:12.694Z,8.90
2019-02-10T07:49:19.435Z,8.27
2019-02-10T07:53:00.879Z,3.20
2019-02-10T07:56:25.062Z,2.60
2019-02-10T08:00:07.676Z,2.10
2019-02-10T08:03:26.412Z,2.33
2019-02-10T08:06:43.529Z,3.47
2019-02-10T08:09:54.448Z,1.90
2019-02-10T08:13:01.152Z,1.60
2019-02-10T08:16:16.584Z,1.63
2019-02-10T08:19:45.422Z,2.90
2019-02-10T08:23:06.724Z,1.30
2019-02-10T08:26:41.943Z,1.47
2019-02-10T08:29:58.918Z,1.20
2019-02-10T08:33:09.615Z,1.50
2019-02-10T08:36:10.681Z,1.93
2019-02-10T08:39:50.139Z,1.70
2019-02-10T08:43:00.916Z,1.80
2019-02-10T08:46:39.322Z,1.77
2019-02-10T08:49:29.495Z,1.70
2019-02-10T08:52:28.788Z,1.90
2019-02-10T08:55:02.521Z,2.33
2019-02-10T08:57:33.990Z,2.73
2019-02-10T09:00:05.819Z,2.67
2019-02-10T09:02:37.324Z,2.30
2019-02-10T09:05:09.141Z,2.43
2019-02-10T09:07:40.569Z,2.30
2019-02-10T09:10:13.101Z,1.83
2019-02-10T09:12:44.528Z,1.90
2019-02-10T09:15:15.977Z,2.00
2019-02-10T09:17:47.458Z,1.90
2019-02-10T09:20:18.921Z,2.60
2019-02-10T09:22:50.425Z,2.53
2019-02-10T09:25:21.864Z,3.37
2019-02-10T09:27:53.288Z,3.63
2019-02-10T09:30:24.825Z,2.17
2019-02-10T09:32:56.273Z,2.07
2019-02-10T09:35:27.783Z,2.00
2019-02-10T09:37:59.226Z,2.07
2019-02-10T09:40:30.663Z,1.60
2019-02-10T09:43:02.101Z,4.13
2019-02-10T09:45:33.552Z,1.57
2019-02-10T09:48:04.993Z,1.40
2019-02-10T09:50:36.432Z,1.43
2019-02-10T09:53:07.875Z,1.37
2019-02-10T09:55:39.313Z,2.83
2019-02-10T09:58:10.735Z,2.47
2019-02-10T10:00:42.189Z,5.80
2019-02-10T10:03:13.661Z,4.00
2019-02-10T10:05:45.094Z,1.50
2019-02-10T10:08:16.534Z,1.63
2019-02-10T10:10:48.192Z,2.20
2019-02-10T10:13:19.624Z,2.17
2019-02-10T10:15:51.101Z,1.73
2019-02-10T10:18:22.602Z,1.60
2019-02-10T10:20:54.261Z,1.83
2019-02-10T10:23:25.721Z,1.77
2019-02-10T10:25:57.292Z,1.93
2019-02-10T10:28:28.790Z,1.67
2019-02-10T10:31:00.243Z,3.10
2019-02-10T10:33:32.027Z,3.60
2019-02-10T10:36:03.643Z,1.57
2019-02-10T10:38:35.138Z,1.70
2019-02-10T10:41:07.754Z,1.83
2019-02-10T10:43:39.358Z,2.50
2019-02-10T10:46:10.793Z,2.17
2019-02-10T10:48:42.243Z,2.70
2019-02-10T10:51:13.712Z,2.77
2019-02-10T10:53:45.227Z,2.27
2019-02-10T10:56:16.679Z,2.90
2019-02-10T10:58:48.150Z,1.87
2019-02-10T11:01:25.192Z,7.70
2019-02-10T11:03:53.420Z,4.13
2019-02-10T11:06:26.756Z,2.60
2019-02-10T11:08:59.818Z,1.70
2019-02-10T11:11:31.397Z,1.83
2019-02-10T11:14:03.238Z,2.00
2019-02-10T11:16:34.793Z,4.00
2019-02-10T11:19:06.257Z,2.10
2019-02-10T11:21:38.762Z,3.27
2019-02-10T11:24:10.259Z,2.30
2019-02-10T11:26:41.617Z,7.00
2019-02-10T11:29:15.977Z,3.47
2019-02-10T11:31:49.079Z,8.20
2019-02-10T11:34:20.452Z,2.00
2019-02-10T11:36:51.909Z,2.20
2019-02-10T11:39:23.363Z,2.10
2019-02-10T11:41:54.935Z,2.77
2019-02-10T11:44:26.333Z,2.57
2019-02-10T11:46:57.835Z,11.53
2019-02-10T11:49:29.276Z,2.53
2019-02-10T11:52:00.783Z,2.87
2019-02-10T11:54:32.236Z,3.07
2019-02-10T11:57:03.727Z,4.20
2019-02-10T11:59:35.308Z,2.70
2019-02-10T12:02:07.034Z,2.43
2019-02-10T12:04:38.419Z,3.23
2019-02-10T12:07:10.007Z,4.93
2019-02-10T12:09:41.547Z,5.00
2019-02-10T12:12:13.037Z,8.70
2019-02-10T12:14:44.460Z,2.60
2019-02-10T12:17:15.929Z,5.03
2019-02-10T12:19:47.470Z,4.40
2019-02-10T12:22:18.994Z,3.00
2019-02-10T12:24:50.433Z,5.53
2019-02-10T12:27:21.932Z,2.47
2019-02-10T12:29:53.373Z,2.90
2019-02-10T12:32:24.906Z,2.60
2019-02-10T12:34:56.384Z,4.03
2019-02-10T12:37:32.468Z,2.50
2019-02-10T12:40:01.097Z,2.90
2019-02-10T12:42:32.646Z,4.33
2019-02-10T12:45:04.160Z,3.37
2019-02-10T12:47:35.646Z,3.77
2019-02-10T12:50:09.084Z,4.10
2019-02-10T12:52:40.636Z,2.50
2019-02-10T12:55:12.251Z,3.10
2019-02-10T12:57:43.749Z,4.50
2019-02-10T13:00:16.606Z,3.80
2019-02-10T13:02:48.187Z,2.50
2019-02-10T13:05:19.639Z,2.37
2019-02-10T13:07:51.035Z,2.80
2019-02-10T13:10:22.525Z,2.57
2019-02-10T13:12:54.061Z,3.17
2019-02-10T13:15:25.570Z,1.80
2019-02-10T13:17:57.020Z,2.20
2019-02-10T13:20:28.498Z,2.53
2019-02-10T13:23:01.135Z,2.50
2019-02-10T13:25:32.606Z,2.30
2019-02-10T13:28:04.106Z,4.40
2019-02-10T13:30:35.584Z,9.13
2019-02-10T13:33:07.067Z,2.60
2019-02-10T13:35:40.559Z,2.77
2019-02-10T13:38:12.069Z,2.37
2019-02-10T13:40:43.522Z,2.50
2019-02-10T13:43:14.967Z,2.73
2019-02-10T13:45:46.726Z,2.27
2019-02-10T13:48:19.276Z,4.93
2019-02-10T13:50:50.724Z,2.60
2019-02-10T13:53:22.218Z,1.97
2019-02-10T13:55:53.702Z,5.83
2019-02-10T13:58:25.188Z,1.60
2019-02-10T14:00:56.609Z,1.73
2019-02-10T14:03:28.098Z,3.70
2019-02-10T14:05:59.572Z,1.60
2019-02-10T14:08:31.036Z,2.53
2019-02-10T14:11:02.525Z,1.60
2019-02-10T14:13:34.876Z,1.77
2019-02-10T14:16:06.477Z,1.83
2019-02-10T14:18:37.960Z,2.23
2019-02-10T14:21:09.406Z,1.83
2019-02-10T14:23:40.902Z,1.63
2019-02-10T14:26:12.378Z,1.80
2019-02-10T14:28:44.986Z,1.77
2019-02-10T14:31:16.473Z,4.50
2019-02-10T14:33:47.973Z,2.33
2019-02-10T14:36:19.438Z,3.33
2019-02-10T14:38:50.911Z,3.10
2019-02-10T14:41:22.362Z,3.00
2019-02-10T14:43:53.808Z,2.50
2019-02-10T14:46:25.286Z,3.03
2019-02-10T14:48:56.807Z,2.87
2019-02-10T14:51:29.289Z,2.73
2019-02-10T14:54:00.777Z,2.47
2019-02-10T14:56:32.310Z,2.10
2019-02-10T14:59:03.778Z,2.60
2019-02-10T15:01:36.819Z,4.67
2019-02-10T15:04:08.404Z,2.57
2019-02-10T15:06:39.831Z,1.50
2019-02-10T15:09:11.627Z,2.03
2019-02-10T15:11:43.069Z,1.83
2019-02-10T15:14:14.439Z,1.50
2019-02-10T15:16:45.928Z,2.17
2019-02-10T15:19:17.385Z,1.93
2019-02-10T15:21:48.825Z,1.60
2019-02-10T15:24:20.270Z,1.40
2019-02-10T15:26:51.694Z,2.53
2019-02-10T15:29:23.209Z,1.50
2019-02-10T15:31:54.673Z,1.90
2019-02-10T15:34:26.188Z,3.87
2019-02-10T15:36:57.637Z,4.73
2019-02-10T15:39:29.926Z,2.07
2019-02-10T15:42:09.074Z,3.93
2019-02-10T15:44:34.530Z,2.20
2019-02-10T15:47:06.031Z,2.57
2019-02-10T15:49:37.485Z,2.77
2019-02-10T15:52:08.958Z,2.20
2019-02-10T15:54:40.402Z,2.63
2019-02-10T15:57:11.887Z,2.50
2019-02-10T15:59:43.377Z,1.70
2019-02-10T16:02:14.810Z,8.27
2019-02-10T16:04:46.300Z,3.03
2019-02-10T16:07:17.719Z,3.00
2019-02-10T16:09:50.302Z,1.87
2019-02-10T16:12:21.719Z,2.23
2019-02-10T16:14:53.195Z,2.00
2019-02-10T16:17:24.608Z,2.40
2019-02-10T16:19:57.097Z,2.70
2019-02-10T16:22:28.585Z,1.57
2019-02-10T16:25:00.110Z,2.40
2019-02-10T16:27:31.614Z,2.13
2019-02-10T16:30:03.147Z,3.67
2019-02-10T16:32:34.854Z,1.40
2019-02-10T16:35:06.836Z,1.70
2019-02-10T16:37:38.279Z,2.80
2019-02-10T16:40:13.430Z,2.73
2019-02-10T16:42:44.871Z,1.37
2019-02-10T16:45:16.413Z,3.77
2019-02-10T16:47:47.878Z,1.87
2019-02-10T16:50:19.359Z,1.70
2019-02-10T16:52:50.818Z,1.77
2019-02-10T16:55:22.351Z,1.83
2019-02-10T16:57:54.633Z,1.67
2019-02-10T17:00:26.247Z,1.40
2019-02-10T17:02:57.760Z,1.30
2019-02-10T17:05:29.221Z,1.47
2019-02-10T17:08:00.851Z,2.40
2019-02-10T17:10:32.417Z,1.80
2019-02-10T17:13:03.922Z,2.10
2019-02-10T17:15:35.427Z,1.70
2019-02-10T17:18:06.869Z,3.23
2019-02-10T17:20:38.360Z,1.70
2019-02-10T17:23:09.789Z,1.37
2019-02-10T17:25:41.302Z,2.90
2019-02-10T17:28:12.785Z,3.17
2019-02-10T17:30:44.287Z,1.47
2019-02-10T17:33:15.770Z,1.50
2019-02-10T17:35:47.276Z,1.63
2019-02-10T17:38:18.695Z,1.50
2019-02-10T17:41:08.188Z,1.60
2019-02-10T17:43:39.638Z,2.73
2019-02-10T17:46:11.116Z,1.67
2019-02-10T17:48:42.558Z,1.83
2019-02-10T17:51:14.041Z,1.30
2019-02-10T17:53:45.532Z,1.70
2019-02-10T17:56:17.004Z,5.27
2019-02-10T17:58:48.448Z,3.73
2019-02-10T18:01:20.045Z,1.47
2019-02-10T18:03:51.493Z,3.33
2019-02-10T18:06:23.065Z,1.60
2019-02-10T18:08:54.544Z,3.20
2019-02-10T18:11:31.034Z,2.13
2019-02-10T18:13:59.239Z,4.80
2019-02-10T18:16:56.446Z,3.73
2019-02-10T18:19:49.859Z,1.30
2019-02-10T18:22:30.021Z,0.80
2019-02-10T18:25:18.574Z,1.53
2019-02-10T18:28:15.261Z,3.57
2019-02-10T18:31:02.098Z,0.80
2019-02-10T18:33:51.069Z,4.00
2019-02-10T18:36:48.729Z,0.70
2019-02-10T18:39:51.547Z,2.03
2019-02-10T18:42:54.323Z,0.90
2019-02-10T18:45:34.839Z,2.33
2019-02-10T18:48:17.775Z,1.53
2019-02-10T18:51:17.190Z,0.60
2019-02-10T18:54:06.908Z,0.70
2019-02-10T18:57:09.357Z,0.67
2019-02-10T18:59:50.011Z,1.00
2019-02-10T19:02:32.840Z,0.70
2019-02-10T19:05:21.961Z,0.60
2019-02-10T19:08:12.435Z,0.60
2019-02-10T19:11:00.025Z,3.47
2019-02-10T19:13:41.700Z,0.90
2019-02-10T19:16:19.177Z,0.80
2019-02-10T19:19:13.172Z,0.70
2019-02-10T19:22:12.686Z,0.70
2019-02-10T19:25:12.093Z,0.60
2019-02-10T19:28:14.771Z,1.17
2019-02-10T19:30:55.474Z,0.70
2019-02-10T19:33:53.244Z,0.60
2019-02-10T19:36:43.590Z,0.60
2019-02-10T19:39:34.299Z,0.60
2019-02-10T19:42:30.657Z,0.70
2019-02-10T19:45:27.191Z,0.70
2019-02-10T19:48:23.290Z,0.60
2019-02-10T19:51:25.671Z,0.60
2019-02-10T19:54:21.953Z,0.63
2019-02-10T19:57:09.277Z,0.60
2019-02-10T20:00:05.047Z,0.60
2019-02-10T20:02:57.777Z,0.60
2019-02-10T20:05:45.834Z,1.13
2019-02-10T20:08:35.081Z,0.60
2019-02-10T20:11:34.790Z,0.90
2019-02-10T20:14:18.656Z,1.20
2019-02-10T20:17:07.905Z,0.60
2019-02-10T20:19:56.832Z,1.23
2019-02-10T20:23:02.312Z,0.80
2019-02-10T20:25:55.492Z,1.80
2019-02-10T20:28:57.878Z,4.50
2019-02-10T20:31:51.214Z,4.53
2019-02-10T20:34:40.383Z,7.40
2019-02-10T20:37:42.261Z,0.70
2019-02-10T20:40:29.680Z,0.60
2019-02-10T20:43:07.013Z,0.60
2019-02-10T20:45:57.357Z,0.70
2019-02-10T20:48:46.405Z,3.03
2019-02-10T20:51:38.157Z,0.60
2019-02-10T20:54:21.526Z,0.50
2019-02-10T20:57:17.761Z,0.50
2019-02-10T21:00:14.376Z,1.00
2019-02-10T21:03:03.556Z,0.60
2019-02-10T21:05:50.741Z,1.13
2019-02-10T21:08:37.425Z,0.60
2019-02-10T21:11:28.625Z,0.60
2019-02-10T21:14:18.959Z,0.50
2019-02-10T21:17:02.458Z,0.50
2019-02-10T21:20:07.935Z,0.70
2019-02-10T21:22:51.966Z,0.97
2019-02-10T21:25:52.701Z,0.60
2019-02-10T21:28:39.063Z,0.60
2019-02-10T21:31:27.862Z,1.37
2019-02-10T21:34:14.147Z,0.60
2019-02-10T21:37:13.882Z,0.60
2019-02-10T21:40:08.570Z,0.60
2019-02-10T21:42:57.476Z,1.10
2019-02-10T21:45:46.777Z,0.60
2019-02-10T21:48:43.232Z,1.00
2019-02-10T21:51:14.655Z,0.60
2019-02-10T21:53:46.097Z,0.50
2019-02-10T21:56:17.470Z,0.63
2019-02-10T21:58:48.923Z,0.60
2019-02-10T22:01:20.392Z,0.50
2019-02-10T22:03:51.812Z,0.70
2019-02-10T22:06:23.277Z,2.63
2019-02-10T22:08:54.732Z,2.47
2019-02-10T22:11:26.155Z,0.60
2019-02-10T22:13:59.206Z,0.60
2019-02-10T22:16:30.614Z,0.60
2019-02-10T22:19:02.067Z,0.60
2019-02-10T22:21:33.587Z,0.60
2019-02-10T22:24:05.210Z,0.80
2019-02-10T22:26:36.728Z,0.63
2019-02-10T22:29:08.386Z,0.80
2019-02-10T22:31:39.808Z,0.90
2019-02-10T22:34:11.602Z,0.60
2019-02-10T22:36:43.061Z,0.60
2019-02-10T22:39:14.570Z,2.20
2019-02-10T22:41:46.106Z,2.20
2019-02-10T22:44:17.558Z,0.83
2019-02-10T22:46:48.892Z,0.60
2019-02-10T22:49:20.321Z,0.50
2019-02-10T22:51:51.756Z,2.57
2019-02-10T22:54:23.204Z,0.60
2019-02-10T22:56:54.694Z,0.70
2019-02-10T22:59:26.244Z,0.70
2019-02-10T23:02:00.411Z,0.60
2019-02-10T23:04:32.157Z,1.90
2019-02-10T23:07:03.848Z,0.60
2019-02-10T23:09:36.276Z,1.30
2019-02-10T23:12:07.698Z,0.87
2019-02-10T23:14:39.202Z,1.13
2019-02-10T23:17:10.687Z,1.13
2019-02-10T23:19:42.250Z,0.63
2019-02-10T23:22:13.614Z,11.97
2019-02-10T23:24:45.273Z,0.60
2019-02-10T23:27:16.627Z,0.70
2019-02-10T23:29:49.949Z,0.67
2019-02-10T23:32:21.297Z,0.60
2019-02-10T23:34:52.731Z,0.70
2019-02-10T23:37:24.158Z,0.70
2019-02-10T23:39:55.644Z,0.60
2019-02-10T23:42:27.090Z,0.80
2019-02-10T23:44:58.562Z,0.90
2019-02-10T23:47:30.001Z,1.53
2019-02-10T23:50:01.448Z,1.53
2019-02-10T23:52:32.959Z,0.50
2019-02-10T23:55:04.863Z,0.60
2019-02-10T23:57:36.307Z,0.80
